Suedburg, Pennsylvania
Current Conditions -  °F | °C
As of 4:58 AM on Sunday 26 Oct 2014 (Local Time) from KMUI Reporting Station
Clear Clear  
Wind Chill: 58°   Ceiling: Unl
Heat Index: 58°   Visibility: 10mi
Dew Point: 35°   Wind: 9mph
Humidity: 41%   Direction: 260°W
Pressure: 29.67"   Gusts: 30mph
Location:  40.5592°N, 76.3347°W
Report Text: KMUI 260858Z AUTO 26008G26KT 10SM CLR 15/02 A2967 RMK AO2 PK WND 27026/49 SLP048 T01460015 52017 $
Loading
Personal Weather Stations






























Interactive Weather Map
Tropical Storm Tracking
New forecast layout! Learn more

10-Day Weather Forecast

Advertisements
Track Severe Weather on mobile